sensor_id;sensor_type;location;lat;lon;timestamp;P1;P2;P0
62547;PMS7003;48602;45.192;5.722;2023-06-24T00:02:13;6.00;6.00;5.25
62547;PMS7003;48602;45.192;5.722;2023-06-24T00:04:39;6.00;6.00;5.00
62547;PMS7003;48602;45.192;5.722;2023-06-24T00:07:04;7.50;7.00;5.00
62547;PMS7003;48602;45.192;5.722;2023-06-24T00:09:30;5.75;5.75;5.00
62547;PMS7003;48602;45.192;5.722;2023-06-24T00:11:56;5.00;5.00;4.00
62547;PMS7003;48602;45.192;5.722;2023-06-24T00:14:26;4.20;4.20;3.80
62547;PMS7003;48602;45.192;5.722;2023-06-24T00:16:55;6.00;6.00;5.00
62547;PMS7003;48602;45.192;5.722;2023-06-24T00:19:22;5.60;5.60;5.20
62547;PMS7003;48602;45.192;5.722;2023-06-24T00:21:49;5.75;5.00;4.25
62547;PMS7003;48602;45.192;5.722;2023-06-24T00:24:20;6.75;6.75;6.00
62547;PMS7003;48602;45.192;5.722;2023-06-24T00:26:50;5.40;5.40;5.00
62547;PMS7003;48602;45.192;5.722;2023-06-24T00:29:19;8.60;6.20;5.20
62547;PMS7003;48602;45.192;5.722;2023-06-24T00:31:45;7.50;7.00;6.00
62547;PMS7003;48602;45.192;5.722;2023-06-24T00:34:10;7.25;7.00;5.75
62547;PMS7003;48602;45.192;5.722;2023-06-24T00:36:36;6.25;6.25;5.75
62547;PMS7003;48602;45.192;5.722;2023-06-24T00:39:03;8.00;6.25;5.50
62547;PMS7003;48602;45.192;5.722;2023-06-24T00:41:32;7.00;7.00;6.00
62547;PMS7003;48602;45.192;5.722;2023-06-24T00:43:59;3.80;3.80;3.20
62547;PMS7003;48602;45.192;5.722;2023-06-24T00:46:26;6.20;5.00;4.20
62547;PMS7003;48602;45.192;5.722;2023-06-24T00:48:52;7.25;7.25;7.00
62547;PMS7003;48602;45.192;5.722;2023-06-24T00:51:18;6.00;6.00;6.00
62547;PMS7003;48602;45.192;5.722;2023-06-24T00:53:46;6.00;5.50;5.25
62547;PMS7003;48602;45.192;5.722;2023-06-24T00:56:12;5.00;5.00;4.40
62547;PMS7003;48602;45.192;5.722;2023-06-24T00:58:39;7.00;4.00;3.00
62547;PMS7003;48602;45.192;5.722;2023-06-24T01:01:06;6.00;6.00;5.25
62547;PMS7003;48602;45.192;5.722;2023-06-24T01:03:33;9.50;6.25;6.00
62547;PMS7003;48602;45.192;5.722;2023-06-24T01:06:02;8.40;7.00;5.80
62547;PMS7003;48602;45.192;5.722;2023-06-24T01:08:27;5.50;4.25;4.25
62547;PMS7003;48602;45.192;5.722;2023-06-24T01:10:53;7.00;7.00;6.00
62547;PMS7003;48602;45.192;5.722;2023-06-24T01:13:19;8.00;8.00;7.00
62547;PMS7003;48602;45.192;5.722;2023-06-24T01:15:45;8.40;7.00;5.00
62547;PMS7003;48602;45.192;5.722;2023-06-24T01:20:55;6.00;6.00;6.00
62547;PMS7003;48602;45.192;5.722;2023-06-24T01:32:03;7.75;6.75;5.00
62547;PMS7003;48602;45.192;5.722;2023-06-24T01:37:20;6.20;6.20;5.00
62547;PMS7003;48602;45.192;5.722;2023-06-24T01:39:57;8.75;7.75;6.25
62547;PMS7003;48602;45.192;5.722;2023-06-24T01:42:37;5.00;5.00;4.00
62547;PMS7003;48602;45.192;5.722;2023-06-24T01:45:05;7.00;7.00;6.00
62547;PMS7003;48602;45.192;5.722;2023-06-24T01:47:33;8.00;7.60;6.40
62547;PMS7003;48602;45.192;5.722;2023-06-24T01:50:00;7.00;7.00;6.00
62547;PMS7003;48602;45.192;5.722;2023-06-24T01:52:28;5.00;5.00;5.00
62547;PMS7003;48602;45.192;5.722;2023-06-24T01:54:55;10.25;7.50;6.75
62547;PMS7003;48602;45.192;5.722;2023-06-24T01:57:23;8.80;8.60;6.60
62547;PMS7003;48602;45.192;5.722;2023-06-24T01:59:52;7.00;7.00;6.00
62547;PMS7003;48602;45.192;5.722;2023-06-24T02:02:19;6.25;6.25;5.25
62547;PMS7003;48602;45.192;5.722;2023-06-24T02:04:47;8.00;6.25;5.25
62547;PMS7003;48602;45.192;5.722;2023-06-24T02:07:14;7.20;7.00;6.40
62547;PMS7003;48602;45.192;5.722;2023-06-24T02:09:42;8.75;7.00;6.00
62547;PMS7003;48602;45.192;5.722;2023-06-24T02:12:10;8.25;8.00;7.00
62547;PMS7003;48602;45.192;5.722;2023-06-24T02:14:37;8.00;8.00;7.00
62547;PMS7003;48602;45.192;5.722;2023-06-24T02:17:04;7.20;7.20;7.00
62547;PMS7003;48602;45.192;5.722;2023-06-24T02:19:32;12.25;8.50;7.00
62547;PMS7003;48602;45.192;5.722;2023-06-24T02:21:59;9.50;7.00;5.50
62547;PMS7003;48602;45.192;5.722;2023-06-24T02:24:26;0.25;0.25;0.25
62547;PMS7003;48602;45.192;5.722;2023-06-24T02:26:54;8.20;7.80;7.00
62547;PMS7003;48602;45.192;5.722;2023-06-24T02:29:21;7.00;6.00;5.50
62547;PMS7003;48602;45.192;5.722;2023-06-24T02:31:48;9.00;7.25;6.00
62547;PMS7003;48602;45.192;5.722;2023-06-24T02:34:13;7.25;7.25;6.75
62547;PMS7003;48602;45.192;5.722;2023-06-24T02:36:39;9.00;7.20;6.60
62547;PMS7003;48602;45.192;5.722;2023-06-24T02:39:04;7.75;7.00;5.00
62547;PMS7003;48602;45.192;5.722;2023-06-24T02:41:30;7.25;7.25;6.50
62547;PMS7003;48602;45.192;5.722;2023-06-24T02:43:55;8.50;8.50;7.25
62547;PMS7003;48602;45.192;5.722;2023-06-24T02:46:21;10.75;9.00;7.00
62547;PMS7003;48602;45.192;5.722;2023-06-24T02:48:47;10.50;9.75;8.00
62547;PMS7003;48602;45.192;5.722;2023-06-24T02:51:14;7.75;7.75;7.00
62547;PMS7003;48602;45.192;5.722;2023-06-24T02:53:40;10.75;10.00;8.00
62547;PMS7003;48602;45.192;5.722;2023-06-24T02:56:06;9.00;9.00;7.75
62547;PMS7003;48602;45.192;5.722;2023-06-24T02:58:33;8.00;8.00;6.20
62547;PMS7003;48602;45.192;5.722;2023-06-24T03:01:02;7.25;7.25;7.00
62547;PMS7003;48602;45.192;5.722;2023-06-24T03:03:28;7.50;7.50;6.00
62547;PMS7003;48602;45.192;5.722;2023-06-24T03:05:55;8.80;8.00;7.00
62547;PMS7003;48602;45.192;5.722;2023-06-24T03:08:24;10.25;7.00;6.00
62547;PMS7003;48602;45.192;5.722;2023-06-24T03:10:56;8.00;8.00;6.00
62547;PMS7003;48602;45.192;5.722;2023-06-24T03:13:23;4.00;3.00;2.25
62547;PMS7003;48602;45.192;5.722;2023-06-24T03:15:48;7.75;7.00;6.00
62547;PMS7003;48602;45.192;5.722;2023-06-24T03:18:14;6.75;6.75;5.75
62547;PMS7003;48602;45.192;5.722;2023-06-24T03:20:40;10.75;9.25;7.75
62547;PMS7003;48602;45.192;5.722;2023-06-24T03:23:06;8.00;7.25;6.00
62547;PMS7003;48602;45.192;5.722;2023-06-24T03:25:32;10.00;7.00;6.25
62547;PMS7003;48602;45.192;5.722;2023-06-24T03:27:58;6.60;6.20;5.20
62547;PMS7003;48602;45.192;5.722;2023-06-24T03:30:25;7.25;7.00;6.00
62547;PMS7003;48602;45.192;5.722;2023-06-24T03:32:51;8.25;7.00;6.00
62547;PMS7003;48602;45.192;5.722;2023-06-24T03:35:16;10.00;9.50;6.00
62547;PMS7003;48602;45.192;5.722;2023-06-24T03:37:42;7.00;7.00;6.00
62547;PMS7003;48602;45.192;5.722;2023-06-24T03:40:08;8.00;8.00;7.00
62547;PMS7003;48602;45.192;5.722;2023-06-24T03:42:33;9.25;8.00;7.00
62547;PMS7003;48602;45.192;5.722;2023-06-24T03:44:59;11.25;10.00;8.50
62547;PMS7003;48602;45.192;5.722;2023-06-24T03:47:24;7.50;7.50;6.25
62547;PMS7003;48602;45.192;5.722;2023-06-24T03:49:50;8.25;7.50;6.75
62547;PMS7003;48602;45.192;5.722;2023-06-24T03:52:16;8.00;8.00;7.00
62547;PMS7003;48602;45.192;5.722;2023-06-24T03:54:42;9.00;9.00;7.80
62547;PMS7003;48602;45.192;5.722;2023-06-24T03:57:07;9.25;9.25;8.50
62547;PMS7003;48602;45.192;5.722;2023-06-24T03:59:33;11.25;11.25;9.00
62547;PMS7003;48602;45.192;5.722;2023-06-24T04:01:59;15.25;10.75;9.00
62547;PMS7003;48602;45.192;5.722;2023-06-24T04:04:25;11.60;11.60;9.00
62547;PMS7003;48602;45.192;5.722;2023-06-24T04:06:51;14.50;14.50;11.00
62547;PMS7003;48602;45.192;5.722;2023-06-24T04:09:16;10.00;9.50;8.00
62547;PMS7003;48602;45.192;5.722;2023-06-24T04:11:42;12.25;11.25;9.25
62547;PMS7003;48602;45.192;5.722;2023-06-24T04:14:07;16.50;14.75;10.00
62547;PMS7003;48602;45.192;5.722;2023-06-24T04:16:34;8.75;8.75;7.00
62547;PMS7003;48602;45.192;5.722;2023-06-24T04:19:00;15.75;11.25;10.00
62547;PMS7003;48602;45.192;5.722;2023-06-24T04:21:25;11.75;10.00;8.00
62547;PMS7003;48602;45.192;5.722;2023-06-24T04:23:51;11.25;10.00;8.00
62547;PMS7003;48602;45.192;5.722;2023-06-24T04:26:16;11.50;11.50;10.50
62547;PMS7003;48602;45.192;5.722;2023-06-24T04:28:41;9.00;9.00;7.50
62547;PMS7003;48602;45.192;5.722;2023-06-24T04:31:07;9.75;8.50;8.00
62547;PMS7003;48602;45.192;5.722;2023-06-24T04:33:32;13.50;10.50;8.50
62547;PMS7003;48602;45.192;5.722;2023-06-24T04:35:57;9.25;8.75;8.00
62547;PMS7003;48602;45.192;5.722;2023-06-24T04:38:25;9.25;7.50;6.75
62547;PMS7003;48602;45.192;5.722;2023-06-24T04:40:50;8.75;7.75;7.50
62547;PMS7003;48602;45.192;5.722;2023-06-24T04:43:16;8.25;8.25;7.25
62547;PMS7003;48602;45.192;5.722;2023-06-24T04:45:41;12.25;10.50;8.50
62547;PMS7003;48602;45.192;5.722;2023-06-24T04:48:07;10.00;10.00;9.00
62547;PMS7003;48602;45.192;5.722;2023-06-24T04:50:32;9.25;8.25;7.25
62547;PMS7003;48602;45.192;5.722;2023-06-24T04:52:57;10.00;10.00;9.00
62547;PMS7003;48602;45.192;5.722;2023-06-24T04:55:23;10.00;10.00;8.25
62547;PMS7003;48602;45.192;5.722;2023-06-24T04:57:48;11.25;10.00;9.00
62547;PMS7003;48602;45.192;5.722;2023-06-24T05:00:14;11.75;10.50;8.00
62547;PMS7003;48602;45.192;5.722;2023-06-24T05:02:40;11.25;10.25;9.25
62547;PMS7003;48602;45.192;5.722;2023-06-24T05:05:05;12.50;12.50;10.00
62547;PMS7003;48602;45.192;5.722;2023-06-24T05:07:31;10.00;8.25;7.25
62547;PMS7003;48602;45.192;5.722;2023-06-24T05:09:56;10.25;8.75;7.00
62547;PMS7003;48602;45.192;5.722;2023-06-24T05:12:22;8.25;8.25;8.00
62547;PMS7003;48602;45.192;5.722;2023-06-24T05:14:51;10.75;9.75;8.75
62547;PMS7003;48602;45.192;5.722;2023-06-24T05:17:19;8.50;8.50;7.00
62547;PMS7003;48602;45.192;5.722;2023-06-24T05:19:45;10.75;10.25;8.00
62547;PMS7003;48602;45.192;5.722;2023-06-24T05:22:11;8.25;7.75;6.00
62547;PMS7003;48602;45.192;5.722;2023-06-24T05:24:36;10.00;8.75;8.00
62547;PMS7003;48602;45.192;5.722;2023-06-24T05:27:05;8.75;8.75;6.00
62547;PMS7003;48602;45.192;5.722;2023-06-24T05:29:32;11.50;10.75;8.50
62547;PMS7003;48602;45.192;5.722;2023-06-24T05:31:57;10.60;10.60;9.40
62547;PMS7003;48602;45.192;5.722;2023-06-24T05:34:24;12.25;10.50;8.00
62547;PMS7003;48602;45.192;5.722;2023-06-24T05:36:49;15.25;12.75;9.75
62547;PMS7003;48602;45.192;5.722;2023-06-24T05:39:14;12.25;10.50;8.75
62547;PMS7003;48602;45.192;5.722;2023-06-24T05:41:40;12.50;10.00;9.00
62547;PMS7003;48602;45.192;5.722;2023-06-24T05:44:08;11.00;10.75;9.00
62547;PMS7003;48602;45.192;5.722;2023-06-24T05:46:37;8.75;8.75;8.50
62547;PMS7003;48602;45.192;5.722;2023-06-24T05:49:02;13.25;13.25;10.00
62547;PMS7003;48602;45.192;5.722;2023-06-24T05:51:28;11.50;11.50;9.75
62547;PMS7003;48602;45.192;5.722;2023-06-24T05:53:53;11.25;11.00;9.00
62547;PMS7003;48602;45.192;5.722;2023-06-24T05:56:19;11.00;10.00;9.00
62547;PMS7003;48602;45.192;5.722;2023-06-24T05:58:45;12.25;12.25;8.75
62547;PMS7003;48602;45.192;5.722;2023-06-24T06:01:11;11.25;11.25;10.00
62547;PMS7003;48602;45.192;5.722;2023-06-24T06:03:36;15.25;14.50;11.00
62547;PMS7003;48602;45.192;5.722;2023-06-24T06:06:02;9.50;9.25;8.00
62547;PMS7003;48602;45.192;5.722;2023-06-24T06:08:27;12.00;11.25;9.25
62547;PMS7003;48602;45.192;5.722;2023-06-24T06:10:53;10.00;10.00;8.25
62547;PMS7003;48602;45.192;5.722;2023-06-24T06:13:18;13.75;12.25;10.25
62547;PMS7003;48602;45.192;5.722;2023-06-24T06:15:44;14.25;9.00;6.75
62547;PMS7003;48602;45.192;5.722;2023-06-24T06:18:09;10.50;9.50;7.00
62547;PMS7003;48602;45.192;5.722;2023-06-24T06:20:35;11.75;11.50;8.75
62547;PMS7003;48602;45.192;5.722;2023-06-24T06:23:00;10.75;10.75;9.00
62547;PMS7003;48602;45.192;5.722;2023-06-24T06:25:26;14.00;10.00;9.00
62547;PMS7003;48602;45.192;5.722;2023-06-24T06:27:51;12.50;11.50;9.75
62547;PMS7003;48602;45.192;5.722;2023-06-24T06:30:17;10.00;10.00;9.00
62547;PMS7003;48602;45.192;5.722;2023-06-24T06:32:42;11.00;10.75;8.50
62547;PMS7003;48602;45.192;5.722;2023-06-24T06:35:08;13.25;11.25;9.50
62547;PMS7003;48602;45.192;5.722;2023-06-24T06:37:33;12.25;11.00;10.00
62547;PMS7003;48602;45.192;5.722;2023-06-24T06:39:59;9.50;9.50;8.25
62547;PMS7003;48602;45.192;5.722;2023-06-24T06:42:24;8.50;8.50;7.50
62547;PMS7003;48602;45.192;5.722;2023-06-24T06:44:51;11.50;11.25;10.25
62547;PMS7003;48602;45.192;5.722;2023-06-24T06:47:16;13.25;12.00;10.00
62547;PMS7003;48602;45.192;5.722;2023-06-24T06:49:42;13.00;10.75;8.00
62547;PMS7003;48602;45.192;5.722;2023-06-24T06:52:07;11.50;10.50;7.50
62547;PMS7003;48602;45.192;5.722;2023-06-24T06:54:33;9.00;9.00;8.25
62547;PMS7003;48602;45.192;5.722;2023-06-24T06:57:02;5.75;4.75;3.75
62547;PMS7003;48602;45.192;5.722;2023-06-24T06:59:29;8.40;8.20;7.20
62547;PMS7003;48602;45.192;5.722;2023-06-24T07:01:55;7.40;6.40;5.40
62547;PMS7003;48602;45.192;5.722;2023-06-24T07:04:20;9.00;9.00;8.00
62547;PMS7003;48602;45.192;5.722;2023-06-24T07:06:45;11.75;10.25;8.75
62547;PMS7003;48602;45.192;5.722;2023-06-24T07:09:11;11.00;10.25;8.50
62547;PMS7003;48602;45.192;5.722;2023-06-24T07:11:36;12.00;12.00;10.00
62547;PMS7003;48602;45.192;5.722;2023-06-24T07:14:01;8.00;8.00;6.50
62547;PMS7003;48602;45.192;5.722;2023-06-24T07:16:27;9.00;9.00;8.00
62547;PMS7003;48602;45.192;5.722;2023-06-24T07:18:52;9.50;8.50;6.75
62547;PMS7003;48602;45.192;5.722;2023-06-24T07:21:18;19.25;10.25;8.25
62547;PMS7003;48602;45.192;5.722;2023-06-24T07:23:43;14.50;11.50;10.50
62547;PMS7003;48602;45.192;5.722;2023-06-24T07:26:09;11.75;11.00;9.50
62547;PMS7003;48602;45.192;5.722;2023-06-24T07:28:34;10.00;9.50;7.50
62547;PMS7003;48602;45.192;5.722;2023-06-24T07:31:00;12.00;12.00;9.50
62547;PMS7003;48602;45.192;5.722;2023-06-24T07:33:25;12.25;11.25;9.00
62547;PMS7003;48602;45.192;5.722;2023-06-24T07:35:50;11.50;11.50;9.00
62547;PMS7003;48602;45.192;5.722;2023-06-24T07:38:16;10.25;10.25;8.25
62547;PMS7003;48602;45.192;5.722;2023-06-24T07:40:41;10.00;9.75;8.75
62547;PMS7003;48602;45.192;5.722;2023-06-24T07:43:07;10.00;10.00;8.50
62547;PMS7003;48602;45.192;5.722;2023-06-24T07:45:32;12.00;10.00;7.25
62547;PMS7003;48602;45.192;5.722;2023-06-24T07:47:57;12.50;10.75;9.00
62547;PMS7003;48602;45.192;5.722;2023-06-24T07:50:23;12.00;11.00;8.50
62547;PMS7003;48602;45.192;5.722;2023-06-24T07:52:49;10.25;9.50;8.50
62547;PMS7003;48602;45.192;5.722;2023-06-24T07:55:14;9.50;9.50;8.00
62547;PMS7003;48602;45.192;5.722;2023-06-24T07:57:40;10.25;10.25;8.50
62547;PMS7003;48602;45.192;5.722;2023-06-24T08:00:09;9.40;9.00;7.20
62547;PMS7003;48602;45.192;5.722;2023-06-24T08:02:36;12.50;12.50;11.00
62547;PMS7003;48602;45.192;5.722;2023-06-24T08:05:01;13.00;10.00;7.75
62547;PMS7003;48602;45.192;5.722;2023-06-24T08:07:26;9.25;9.25;8.50
62547;PMS7003;48602;45.192;5.722;2023-06-24T08:09:52;8.00;7.25;7.00
62547;PMS7003;48602;45.192;5.722;2023-06-24T08:12:17;10.75;10.00;9.00
62547;PMS7003;48602;45.192;5.722;2023-06-24T08:14:43;10.00;9.00;7.50
62547;PMS7003;48602;45.192;5.722;2023-06-24T08:17:08;13.50;11.25;9.50
62547;PMS7003;48602;45.192;5.722;2023-06-24T08:19:33;12.25;10.50;8.50
62547;PMS7003;48602;45.192;5.722;2023-06-24T08:21:59;10.25;9.50;8.25
62547;PMS7003;48602;45.192;5.722;2023-06-24T08:24:24;11.75;11.25;9.00
62547;PMS7003;48602;45.192;5.722;2023-06-24T08:26:49;9.75;9.75;9.00
62547;PMS7003;48602;45.192;5.722;2023-06-24T08:29:15;9.25;9.25;8.75
62547;PMS7003;48602;45.192;5.722;2023-06-24T08:31:40;10.75;9.00;8.00
62547;PMS7003;48602;45.192;5.722;2023-06-24T08:34:05;8.00;8.00;7.75
62547;PMS7003;48602;45.192;5.722;2023-06-24T08:36:31;12.25;11.25;8.50
62547;PMS7003;48602;45.192;5.722;2023-06-24T08:38:57;13.25;12.25;10.25
62547;PMS7003;48602;45.192;5.722;2023-06-24T08:41:23;12.75;12.75;10.50
62547;PMS7003;48602;45.192;5.722;2023-06-24T08:43:50;11.50;11.50;10.50
62547;PMS7003;48602;45.192;5.722;2023-06-24T08:46:15;10.75;8.75;7.00
62547;PMS7003;48602;45.192;5.722;2023-06-24T08:48:43;12.00;11.00;9.00
62547;PMS7003;48602;45.192;5.722;2023-06-24T08:51:11;13.50;11.50;10.25
62547;PMS7003;48602;45.192;5.722;2023-06-24T08:53:41;10.00;10.00;8.00
62547;PMS7003;48602;45.192;5.722;2023-06-24T08:56:08;11.20;9.40;9.00
62547;PMS7003;48602;45.192;5.722;2023-06-24T08:58:35;12.00;10.00;9.00
62547;PMS7003;48602;45.192;5.722;2023-06-24T09:01:00;10.00;9.00;7.75
62547;PMS7003;48602;45.192;5.722;2023-06-24T09:03:27;11.00;11.00;9.00
62547;PMS7003;48602;45.192;5.722;2023-06-24T09:05:52;11.00;10.50;8.50
62547;PMS7003;48602;45.192;5.722;2023-06-24T09:08:18;12.75;10.25;9.00
62547;PMS7003;48602;45.192;5.722;2023-06-24T09:10:43;13.00;10.00;8.00
62547;PMS7003;48602;45.192;5.722;2023-06-24T09:13:09;10.75;10.75;9.50
62547;PMS7003;48602;45.192;5.722;2023-06-24T09:15:35;12.00;10.50;8.75
62547;PMS7003;48602;45.192;5.722;2023-06-24T09:18:01;11.00;11.00;8.75
62547;PMS7003;48602;45.192;5.722;2023-06-24T09:20:28;8.75;8.75;8.00
62547;PMS7003;48602;45.192;5.722;2023-06-24T09:22:59;11.25;11.25;9.50
62547;PMS7003;48602;45.192;5.722;2023-06-24T09:25:25;12.80;12.00;11.00
62547;PMS7003;48602;45.192;5.722;2023-06-24T09:27:51;10.25;10.25;9.00
62547;PMS7003;48602;45.192;5.722;2023-06-24T09:30:20;9.75;9.75;8.75
62547;PMS7003;48602;45.192;5.722;2023-06-24T09:32:50;11.00;11.00;10.80
62547;PMS7003;48602;45.192;5.722;2023-06-24T09:35:18;9.80;7.20;7.00
62547;PMS7003;48602;45.192;5.722;2023-06-24T09:37:54;8.80;8.40;6.40
62547;PMS7003;48602;45.192;5.722;2023-06-24T09:40:21;9.50;8.75;7.00
62547;PMS7003;48602;45.192;5.722;2023-06-24T09:42:56;11.00;10.00;9.00
62547;PMS7003;48602;45.192;5.722;2023-06-24T09:45:24;11.40;11.20;9.80
62547;PMS7003;48602;45.192;5.722;2023-06-24T09:47:51;10.20;8.80;7.80
62547;PMS7003;48602;45.192;5.722;2023-06-24T09:50:17;8.25;8.00;7.00
62547;PMS7003;48602;45.192;5.722;2023-06-24T09:52:44;9.25;9.25;7.75
62547;PMS7003;48602;45.192;5.722;2023-06-24T09:55:12;10.20;10.20;9.00
62547;PMS7003;48602;45.192;5.722;2023-06-24T09:57:39;9.75;9.75;8.00
62547;PMS7003;48602;45.192;5.722;2023-06-24T10:00:09;11.25;11.25;10.25
62547;PMS7003;48602;45.192;5.722;2023-06-24T10:02:35;6.40;6.40;5.20
62547;PMS7003;48602;45.192;5.722;2023-06-24T10:05:01;12.00;12.00;9.60
62547;PMS7003;48602;45.192;5.722;2023-06-24T10:07:28;10.20;10.20;8.80
62547;PMS7003;48602;45.192;5.722;2023-06-24T10:09:56;13.00;10.00;9.25
62547;PMS7003;48602;45.192;5.722;2023-06-24T10:12:22;9.00;8.00;7.50
62547;PMS7003;48602;45.192;5.722;2023-06-24T10:14:47;12.00;12.00;8.50
62547;PMS7003;48602;45.192;5.722;2023-06-24T10:17:13;12.00;11.00;9.00
62547;PMS7003;48602;45.192;5.722;2023-06-24T10:19:39;10.50;10.00;9.00
62547;PMS7003;48602;45.192;5.722;2023-06-24T10:22:09;9.80;9.80;8.60
62547;PMS7003;48602;45.192;5.722;2023-06-24T10:24:36;9.00;8.80;7.80
62547;PMS7003;48602;45.192;5.722;2023-06-24T10:27:15;10.80;10.00;8.80
62547;PMS7003;48602;45.192;5.722;2023-06-24T10:29:46;10.75;10.00;9.00
62547;PMS7003;48602;45.192;5.722;2023-06-24T10:32:12;13.50;12.50;10.75
62547;PMS7003;48602;45.192;5.722;2023-06-24T10:37:04;12.00;11.50;9.00
62547;PMS7003;48602;45.192;5.722;2023-06-24T10:42:30;10.80;9.00;8.80
62547;PMS7003;48602;45.192;5.722;2023-06-24T10:47:34;8.75;8.00;7.25
62547;PMS7003;48602;45.192;5.722;2023-06-24T10:50:05;13.75;11.50;9.25
62547;PMS7003;48602;45.192;5.722;2023-06-24T10:52:32;7.00;7.00;6.80
62547;PMS7003;48602;45.192;5.722;2023-06-24T10:54:58;8.75;8.75;7.50
62547;PMS7003;48602;45.192;5.722;2023-06-24T10:59:51;9.00;9.00;7.40
62547;PMS7003;48602;45.192;5.722;2023-06-24T11:02:18;10.40;8.80;7.80
62547;PMS7003;48602;45.192;5.722;2023-06-24T11:04:52;6.80;6.80;6.00
62547;PMS7003;48602;45.192;5.722;2023-06-24T11:07:20;7.60;7.00;6.00
62547;PMS7003;48602;45.192;5.722;2023-06-24T11:09:51;10.00;10.00;8.50
62547;PMS7003;48602;45.192;5.722;2023-06-24T11:12:19;10.20;9.60;9.20
62547;PMS7003;48602;45.192;5.722;2023-06-24T11:14:48;9.40;9.40;8.80
62547;PMS7003;48602;45.192;5.722;2023-06-24T11:17:14;9.25;8.25;7.25
62547;PMS7003;48602;45.192;5.722;2023-06-24T11:19:39;10.00;10.00;9.00
62547;PMS7003;48602;45.192;5.722;2023-06-24T11:22:06;10.40;8.40;8.20
62547;PMS7003;48602;45.192;5.722;2023-06-24T11:24:33;12.20;11.00;10.00
62547;PMS7003;48602;45.192;5.722;2023-06-24T11:26:59;10.60;10.20;8.80
62547;PMS7003;48602;45.192;5.722;2023-06-24T11:29:28;13.00;11.00;10.00
62547;PMS7003;48602;45.192;5.722;2023-06-24T11:31:55;11.40;9.80;7.80
62547;PMS7003;48602;45.192;5.722;2023-06-24T11:34:20;11.25;10.75;8.75
62547;PMS7003;48602;45.192;5.722;2023-06-24T11:36:46;8.75;8.75;8.00
62547;PMS7003;48602;45.192;5.722;2023-06-24T11:39:20;9.80;8.00;8.00
62547;PMS7003;48602;45.192;5.722;2023-06-24T11:41:52;13.00;11.00;9.60
62547;PMS7003;48602;45.192;5.722;2023-06-24T11:44:19;11.60;11.60;10.40
62547;PMS7003;48602;45.192;5.722;2023-06-24T11:46:46;9.20;9.20;8.00
62547;PMS7003;48602;45.192;5.722;2023-06-24T11:49:12;9.25;9.25;8.25
62547;PMS7003;48602;45.192;5.722;2023-06-24T11:51:45;10.60;9.60;8.80
62547;PMS7003;48602;45.192;5.722;2023-06-24T11:54:13;8.80;8.20;6.80
62547;PMS7003;48602;45.192;5.722;2023-06-24T11:56:40;9.40;8.20;7.00
62547;PMS7003;48602;45.192;5.722;2023-06-24T11:59:06;8.50;8.50;7.50
62547;PMS7003;48602;45.192;5.722;2023-06-24T12:01:42;9.50;9.00;8.00
62547;PMS7003;48602;45.192;5.722;2023-06-24T12:04:14;11.00;11.00;8.25
62547;PMS7003;48602;45.192;5.722;2023-06-24T12:06:44;11.00;10.60;8.80
62547;PMS7003;48602;45.192;5.722;2023-06-24T12:09:09;8.00;8.00;8.00
62547;PMS7003;48602;45.192;5.722;2023-06-24T12:11:35;12.00;10.25;9.25
62547;PMS7003;48602;45.192;5.722;2023-06-24T12:14:01;9.40;9.20;8.00
62547;PMS7003;48602;45.192;5.722;2023-06-24T12:16:27;12.00;11.00;10.00
62547;PMS7003;48602;45.192;5.722;2023-06-24T12:18:54;10.50;9.50;8.00
62547;PMS7003;48602;45.192;5.722;2023-06-24T12:21:19;11.50;10.75;10.00
62547;PMS7003;48602;45.192;5.722;2023-06-24T12:23:44;9.00;9.00;8.00
62547;PMS7003;48602;45.192;5.722;2023-06-24T12:26:10;10.50;10.50;9.50
62547;PMS7003;48602;45.192;5.722;2023-06-24T12:28:36;11.25;10.75;9.00
62547;PMS7003;48602;45.192;5.722;2023-06-24T12:31:02;14.00;13.25;10.75
62547;PMS7003;48602;45.192;5.722;2023-06-24T12:33:27;9.50;9.25;8.75
62547;PMS7003;48602;45.192;5.722;2023-06-24T12:35:53;11.75;11.50;10.25
62547;PMS7003;48602;45.192;5.722;2023-06-24T12:38:18;11.00;10.25;8.25
62547;PMS7003;48602;45.192;5.722;2023-06-24T12:40:44;10.75;10.25;9.25
62547;PMS7003;48602;45.192;5.722;2023-06-24T12:43:10;11.25;11.25;9.25
62547;PMS7003;48602;45.192;5.722;2023-06-24T12:45:36;10.75;10.75;9.00
62547;PMS7003;48602;45.192;5.722;2023-06-24T12:48:03;10.75;10.75;9.00
62547;PMS7003;48602;45.192;5.722;2023-06-24T12:50:28;9.00;9.00;6.25
62547;PMS7003;48602;45.192;5.722;2023-06-24T12:52:56;12.00;10.60;9.40
62547;PMS7003;48602;45.192;5.722;2023-06-24T12:55:22;10.25;10.25;8.50
62547;PMS7003;48602;45.192;5.722;2023-06-24T12:57:47;11.75;11.75;10.75
62547;PMS7003;48602;45.192;5.722;2023-06-24T13:00:13;11.75;11.75;10.50
62547;PMS7003;48602;45.192;5.722;2023-06-24T13:02:39;11.00;11.00;9.60
62547;PMS7003;48602;45.192;5.722;2023-06-24T13:05:04;9.75;8.50;7.75
62547;PMS7003;48602;45.192;5.722;2023-06-24T13:07:30;11.25;10.25;9.25
62547;PMS7003;48602;45.192;5.722;2023-06-24T13:09:56;12.00;9.75;8.75
62547;PMS7003;48602;45.192;5.722;2023-06-24T13:12:21;12.00;9.75;8.00
62547;PMS7003;48602;45.192;5.722;2023-06-24T13:14:47;12.50;12.50;11.00
62547;PMS7003;48602;45.192;5.722;2023-06-24T13:17:12;12.25;10.75;9.50
62547;PMS7003;48602;45.192;5.722;2023-06-24T13:19:38;11.75;11.75;9.50
62547;PMS7003;48602;45.192;5.722;2023-06-24T13:22:03;10.00;10.00;9.00
62547;PMS7003;48602;45.192;5.722;2023-06-24T13:24:29;13.00;11.00;9.00
62547;PMS7003;48602;45.192;5.722;2023-06-24T13:26:55;10.75;10.25;9.50
62547;PMS7003;48602;45.192;5.722;2023-06-24T13:29:20;12.00;11.00;9.00
62547;PMS7003;48602;45.192;5.722;2023-06-24T13:31:46;10.50;9.75;9.00
62547;PMS7003;48602;45.192;5.722;2023-06-24T13:34:11;10.25;10.25;9.50
62547;PMS7003;48602;45.192;5.722;2023-06-24T13:36:37;10.00;9.50;9.00
62547;PMS7003;48602;45.192;5.722;2023-06-24T13:39:04;9.00;9.00;8.00
62547;PMS7003;48602;45.192;5.722;2023-06-24T13:41:31;11.80;9.80;8.40
62547;PMS7003;48602;45.192;5.722;2023-06-24T13:44:00;9.00;9.00;8.00
62547;PMS7003;48602;45.192;5.722;2023-06-24T13:46:25;10.25;9.25;8.00
62547;PMS7003;48602;45.192;5.722;2023-06-24T13:48:51;9.00;9.00;7.50
62547;PMS7003;48602;45.192;5.722;2023-06-24T13:51:18;8.00;7.00;6.25
62547;PMS7003;48602;45.192;5.722;2023-06-24T13:53:45;8.00;8.00;6.60
62547;PMS7003;48602;45.192;5.722;2023-06-24T13:56:12;8.00;8.00;6.25
62547;PMS7003;48602;45.192;5.722;2023-06-24T13:58:38;6.75;6.75;5.75
62547;PMS7003;48602;45.192;5.722;2023-06-24T14:01:03;7.25;7.25;6.50
62547;PMS7003;48602;45.192;5.722;2023-06-24T14:03:28;6.25;6.25;6.00
62547;PMS7003;48602;45.192;5.722;2023-06-24T14:05:54;10.00;8.75;7.00
62547;PMS7003;48602;45.192;5.722;2023-06-24T14:08:19;7.75;7.75;7.00
62547;PMS7003;48602;45.192;5.722;2023-06-24T14:10:45;8.00;8.00;7.00
62547;PMS7003;48602;45.192;5.722;2023-06-24T14:13:10;7.00;6.50;5.25
62547;PMS7003;48602;45.192;5.722;2023-06-24T14:15:35;8.00;8.00;6.50
62547;PMS7003;48602;45.192;5.722;2023-06-24T14:18:01;5.50;5.50;5.00
62547;PMS7003;48602;45.192;5.722;2023-06-24T14:20:26;9.50;8.75;7.75
62547;PMS7003;48602;45.192;5.722;2023-06-24T14:22:52;7.00;6.75;6.00
62547;PMS7003;48602;45.192;5.722;2023-06-24T14:25:17;11.00;8.75;7.75
62547;PMS7003;48602;45.192;5.722;2023-06-24T14:27:42;8.25;7.25;5.75
62547;PMS7003;48602;45.192;5.722;2023-06-24T14:30:09;7.00;7.00;5.60